sensor_id;sensor_type;location;lat;lon;timestamp;pressure;altitude;pressure_sealevel;temperature;humidity
30682;BME280;17439;48.092;11.842;2024-01-10T00:00:32;96094.22;;;-3.83;63.80
30682;BME280;17439;48.092;11.842;2024-01-10T00:02:59;96088.13;;;-3.77;63.94
30682;BME280;17439;48.092;11.842;2024-01-10T00:05:26;96087.47;;;-3.72;63.96
30682;BME280;17439;48.092;11.842;2024-01-10T00:07:52;96084.22;;;-3.68;63.96
30682;BME280;17439;48.092;11.842;2024-01-10T00:10:19;96086.25;;;-3.63;63.85
30682;BME280;17439;48.092;11.842;2024-01-10T00:12:46;96080.53;;;-3.60;64.01
30682;BME280;17439;48.092;11.842;2024-01-10T00:15:13;96086.25;;;-3.56;63.83
30682;BME280;17439;48.092;11.842;2024-01-10T00:17:40;96085.81;;;-3.53;63.79
30682;BME280;17439;48.092;11.842;2024-01-10T00:20:07;96099.31;;;-3.48;63.99
30682;BME280;17439;48.092;11.842;2024-01-10T00:22:34;96087.25;;;-3.44;63.99
30682;BME280;17439;48.092;11.842;2024-01-10T00:25:01;96092.13;;;-3.41;63.98
30682;BME280;17439;48.092;11.842;2024-01-10T00:27:28;96091.72;;;-3.38;63.92
30682;BME280;17439;48.092;11.842;2024-01-10T00:29:55;96083.34;;;-3.35;63.79
30682;BME280;17439;48.092;11.842;2024-01-10T00:32:21;96083.16;;;-3.33;63.94
30682;BME280;17439;48.092;11.842;2024-01-10T00:34:48;96084.59;;;-3.31;63.70
30682;BME280;17439;48.092;11.842;2024-01-10T00:37:15;96084.38;;;-3.29;63.80
30682;BME280;17439;48.092;11.842;2024-01-10T00:39:42;96088.63;;;-3.28;63.82
30682;BME280;17439;48.092;11.842;2024-01-10T00:42:08;96089.28;;;-3.26;63.62
30682;BME280;17439;48.092;11.842;2024-01-10T00:44:35;96089.88;;;-3.24;63.79
30682;BME280;17439;48.092;11.842;2024-01-10T00:47:02;96085.38;;;-3.23;64.01
30682;BME280;17439;48.092;11.842;2024-01-10T00:49:29;96080.66;;;-3.21;64.16
30682;BME280;17439;48.092;11.842;2024-01-10T00:51:56;96090.84;;;-3.18;64.26
30682;BME280;17439;48.092;11.842;2024-01-10T00:54:22;96085.34;;;-3.17;64.18
30682;BME280;17439;48.092;11.842;2024-01-10T00:56:49;96076.97;;;-3.14;64.17
30682;BME280;17439;48.092;11.842;2024-01-10T00:59:16;96086.34;;;-3.11;64.05
30682;BME280;17439;48.092;11.842;2024-01-10T01:01:42;96088.59;;;-3.08;64.11
30682;BME280;17439;48.092;11.842;2024-01-10T01:04:09;96090.25;;;-3.07;64.10
30682;BME280;17439;48.092;11.842;2024-01-10T01:06:36;96084.94;;;-3.07;63.96
30682;BME280;17439;48.092;11.842;2024-01-10T01:09:03;96084.69;;;-3.05;64.14
30682;BME280;17439;48.092;11.842;2024-01-10T01:11:29;96088.97;;;-3.04;64.10
30682;BME280;17439;48.092;11.842;2024-01-10T01:13:56;96094.88;;;-3.02;64.36
30682;BME280;17439;48.092;11.842;2024-01-10T01:16:23;96096.75;;;-3.03;64.20
30682;BME280;17439;48.092;11.842;2024-01-10T01:18:50;96102.03;;;-3.03;64.30
30682;BME280;17439;48.092;11.842;2024-01-10T01:21:16;96099.38;;;-3.03;64.13
30682;BME280;17439;48.092;11.842;2024-01-10T01:23:43;96109.00;;;-3.02;64.35
30682;BME280;17439;48.092;11.842;2024-01-10T01:26:10;96102.84;;;-3.02;64.34
30682;BME280;17439;48.092;11.842;2024-01-10T01:28:37;96110.59;;;-3.01;64.47
30682;BME280;17439;48.092;11.842;2024-01-10T01:31:04;96105.09;;;-2.99;64.67
30682;BME280;17439;48.092;11.842;2024-01-10T01:33:31;96106.53;;;-2.97;64.69
30682;BME280;17439;48.092;11.842;2024-01-10T01:35:57;96113.47;;;-2.96;64.59
30682;BME280;17439;48.092;11.842;2024-01-10T01:38:24;96118.34;;;-2.93;64.73
30682;BME280;17439;48.092;11.842;2024-01-10T01:40:52;96115.50;;;-2.91;64.45
30682;BME280;17439;48.092;11.842;2024-01-10T01:43:20;96108.13;;;-2.89;64.40
30682;BME280;17439;48.092;11.842;2024-01-10T01:45:50;96113.22;;;-2.87;64.05
30682;BME280;17439;48.092;11.842;2024-01-10T01:48:18;96105.28;;;-2.87;64.42
30682;BME280;17439;48.092;11.842;2024-01-10T01:50:47;96112.19;;;-2.86;64.51
30682;BME280;17439;48.092;11.842;2024-01-10T01:53:15;96115.47;;;-2.84;64.46
30682;BME280;17439;48.092;11.842;2024-01-10T01:55:43;96112.19;;;-2.86;64.20
30682;BME280;17439;48.092;11.842;2024-01-10T01:58:11;96113.81;;;-2.85;64.35
30682;BME280;17439;48.092;11.842;2024-01-10T02:00:39;96119.34;;;-2.87;64.16
30682;BME280;17439;48.092;11.842;2024-01-10T02:03:07;96105.69;;;-2.90;62.83
30682;BME280;17439;48.092;11.842;2024-01-10T02:05:34;96112.41;;;-2.88;64.26
30682;BME280;17439;48.092;11.842;2024-01-10T02:08:01;96112.41;;;-2.88;64.27
30682;BME280;17439;48.092;11.842;2024-01-10T02:10:28;96113.44;;;-2.89;64.21
30682;BME280;17439;48.092;11.842;2024-01-10T02:12:54;96111.00;;;-2.90;64.28
30682;BME280;17439;48.092;11.842;2024-01-10T02:15:21;96109.34;;;-2.92;64.49
30682;BME280;17439;48.092;11.842;2024-01-10T02:17:48;96118.34;;;-2.93;64.41
30682;BME280;17439;48.092;11.842;2024-01-10T02:20:16;96114.06;;;-2.94;64.38
30682;BME280;17439;48.092;11.842;2024-01-10T02:22:43;96107.94;;;-2.94;64.67
30682;BME280;17439;48.092;11.842;2024-01-10T02:25:10;96116.72;;;-2.94;64.76
30682;BME280;17439;48.092;11.842;2024-01-10T02:27:37;96119.97;;;-2.92;64.40
30682;BME280;17439;48.092;11.842;2024-01-10T02:30:05;96129.56;;;-2.90;64.31
30682;BME280;17439;48.092;11.842;2024-01-10T02:32:33;96132.22;;;-2.90;64.16
30682;BME280;17439;48.092;11.842;2024-01-10T02:35:00;96125.28;;;-2.92;64.07
30682;BME280;17439;48.092;11.842;2024-01-10T02:37:26;96131.63;;;-2.93;64.23
30682;BME280;17439;48.092;11.842;2024-01-10T02:39:54;96122.81;;;-2.93;64.22
30682;BME280;17439;48.092;11.842;2024-01-10T02:42:20;96120.19;;;-2.93;64.31
30682;BME280;17439;48.092;11.842;2024-01-10T02:44:47;96125.47;;;-2.93;64.16
30682;BME280;17439;48.092;11.842;2024-01-10T02:47:14;96122.03;;;-2.94;nan
30682;BME280;17439;48.092;11.842;2024-01-10T02:49:41;96120.81;;;-2.98;63.16
30682;BME280;17439;48.092;11.842;2024-01-10T02:52:08;96121.22;;;-2.94;64.31
30682;BME280;17439;48.092;11.842;2024-01-10T02:54:35;96121.22;;;-2.94;64.38
30682;BME280;17439;48.092;11.842;2024-01-10T02:57:02;96115.91;;;-2.94;64.27
30682;BME280;17439;48.092;11.842;2024-01-10T02:59:28;96121.22;;;-2.94;64.51
30682;BME280;17439;48.092;11.842;2024-01-10T03:01:55;96119.16;;;-2.92;64.47
30682;BME280;17439;48.092;11.842;2024-01-10T03:04:22;96119.97;;;-2.92;64.16
30682;BME280;17439;48.092;11.842;2024-01-10T03:06:48;96110.59;;;-2.94;64.23
30682;BME280;17439;48.092;11.842;2024-01-10T03:09:15;96111.41;;;-2.94;64.37
30682;BME280;17439;48.092;11.842;2024-01-10T03:11:42;96111.63;;;-2.95;64.50
30682;BME280;17439;48.092;11.842;2024-01-10T03:14:10;96110.81;;;-2.96;64.49
30682;BME280;17439;48.092;11.842;2024-01-10T03:16:38;96106.53;;;-2.97;64.54
30682;BME280;17439;48.092;11.842;2024-01-10T03:19:05;96115.50;;;-2.98;64.81
30682;BME280;17439;48.092;11.842;2024-01-10T03:21:32;96114.69;;;-2.98;64.77
30682;BME280;17439;48.092;11.842;2024-01-10T03:23:59;96111.03;;;-2.97;64.74
30682;BME280;17439;48.092;11.842;2024-01-10T03:26:27;96105.72;;;-2.97;64.97
30682;BME280;17439;48.092;11.842;2024-01-10T03:28:54;96105.28;;;-3.01;63.59
30682;BME280;17439;48.092;11.842;2024-01-10T03:31:21;96102.84;;;-2.96;65.05
30682;BME280;17439;48.092;11.842;2024-01-10T03:33:48;96100.19;;;-2.96;64.94
30682;BME280;17439;48.092;11.842;2024-01-10T03:36:16;96104.25;;;-2.93;64.81
30682;BME280;17439;48.092;11.842;2024-01-10T03:38:44;96103.03;;;-2.90;64.89
30682;BME280;17439;48.092;11.842;2024-01-10T03:41:15;96096.72;;;-2.89;64.68
30682;BME280;17439;48.092;11.842;2024-01-10T03:43:42;96090.94;;;-2.86;65.06
30682;BME280;17439;48.092;11.842;2024-01-10T03:46:09;96089.94;;;-2.85;64.81
30682;BME280;17439;48.092;11.842;2024-01-10T03:48:36;96073.81;;;-2.84;64.80
30682;BME280;17439;48.092;11.842;2024-01-10T03:51:03;96080.75;;;-2.83;65.05
30682;BME280;17439;48.092;11.842;2024-01-10T03:53:30;96079.50;;;-2.80;65.07
30682;BME280;17439;48.092;11.842;2024-01-10T03:55:57;96080.13;;;-2.78;64.92
30682;BME280;17439;48.092;11.842;2024-01-10T03:58:24;96077.25;;;-2.77;64.92
30682;BME280;17439;48.092;11.842;2024-01-10T04:00:50;96085.81;;;-2.75;64.65
30682;BME280;17439;48.092;11.842;2024-01-10T04:03:17;96083.97;;;-2.74;64.58
30682;BME280;17439;48.092;11.842;2024-01-10T04:05:44;96088.25;;;-2.73;64.41
30682;BME280;17439;48.092;11.842;2024-01-10T04:08:11;96088.25;;;-2.73;64.28
30682;BME280;17439;48.092;11.842;2024-01-10T04:10:39;96092.56;;;-2.79;63.05
30682;BME280;17439;48.092;11.842;2024-01-10T04:13:06;96092.34;;;-2.77;64.27
30682;BME280;17439;48.092;11.842;2024-01-10T04:15:32;96085.84;;;-2.81;64.16
30682;BME280;17439;48.092;11.842;2024-01-10T04:17:59;96082.56;;;-2.83;64.23
30682;BME280;17439;48.092;11.842;2024-01-10T04:20:26;96088.31;;;-2.86;64.19
30682;BME280;17439;48.092;11.842;2024-01-10T04:22:53;96084.03;;;-2.87;64.39
30682;BME280;17439;48.092;11.842;2024-01-10T04:25:20;96085.06;;;-2.88;64.49
30682;BME280;17439;48.092;11.842;2024-01-10T04:27:46;96087.72;;;-2.88;64.86
30682;BME280;17439;48.092;11.842;2024-01-10T04:30:13;96088.31;;;-2.86;64.83
30682;BME280;17439;48.092;11.842;2024-01-10T04:32:40;96084.63;;;-2.85;64.94
30682;BME280;17439;48.092;11.842;2024-01-10T04:35:07;96074.81;;;-2.85;64.72
30682;BME280;17439;48.092;11.842;2024-01-10T04:37:34;96081.78;;;-2.84;64.61
30682;BME280;17439;48.092;11.842;2024-01-10T04:40:00;96083.19;;;-2.81;64.78
30682;BME280;17439;48.092;11.842;2024-01-10T04:42:27;96088.31;;;-2.80;64.52
30682;BME280;17439;48.092;11.842;2024-01-10T04:44:54;96078.28;;;-2.78;64.58
30682;BME280;17439;48.092;11.842;2024-01-10T04:47:21;96079.91;;;-2.77;64.53
30682;BME280;17439;48.092;11.842;2024-01-10T04:49:47;96080.72;;;-2.76;64.55
30682;BME280;17439;48.092;11.842;2024-01-10T04:52:14;96075.41;;;-2.76;64.52
30682;BME280;17439;48.092;11.842;2024-01-10T04:54:41;96081.31;;;-2.74;64.63
30682;BME280;17439;48.092;11.842;2024-01-10T04:57:08;96078.88;;;-2.76;64.57
30682;BME280;17439;48.092;11.842;2024-01-10T04:59:34;96083.97;;;-2.74;64.48
30682;BME280;17439;48.092;11.842;2024-01-10T05:02:01;96080.31;;;-2.73;64.51
30682;BME280;17439;48.092;11.842;2024-01-10T05:04:28;96084.81;;;-2.74;64.54
30682;BME280;17439;48.092;11.842;2024-01-10T05:06:55;96085.59;;;-2.73;64.78
30682;BME280;17439;48.092;11.842;2024-01-10T05:09:21;96087.25;;;-2.72;64.58
30682;BME280;17439;48.092;11.842;2024-01-10T05:11:48;96079.28;;;-2.72;64.33
30682;BME280;17439;48.092;11.842;2024-01-10T05:14:15;96089.66;;;-2.70;64.55
30682;BME280;17439;48.092;11.842;2024-01-10T05:16:42;96084.34;;;-2.70;64.37
30682;BME280;17439;48.092;11.842;2024-01-10T05:19:08;96090.50;;;-2.70;64.40
30682;BME280;17439;48.092;11.842;2024-01-10T05:21:35;96093.16;;;-2.70;64.54
30682;BME280;17439;48.092;11.842;2024-01-10T05:24:02;96100.06;;;-2.69;64.36
30682;BME280;17439;48.092;11.842;2024-01-10T05:26:29;96098.47;;;-2.70;64.08
30682;BME280;17439;48.092;11.842;2024-01-10T05:28:56;96101.13;;;-2.70;64.46
30682;BME280;17439;48.092;11.842;2024-01-10T05:31:22;96105.59;;;-2.70;64.40
30682;BME280;17439;48.092;11.842;2024-01-10T05:33:49;96105.59;;;-2.70;64.40
30682;BME280;17439;48.092;11.842;2024-01-10T05:36:16;96109.28;;;-2.71;64.42
30682;BME280;17439;48.092;11.842;2024-01-10T05:38:43;96109.06;;;-2.70;64.62
30682;BME280;17439;48.092;11.842;2024-01-10T05:41:09;96111.72;;;-2.70;64.37
30682;BME280;17439;48.092;11.842;2024-01-10T05:43:36;96110.69;;;-2.69;64.40
30682;BME280;17439;48.092;11.842;2024-01-10T05:46:03;96107.22;;;-2.69;64.47
30682;BME280;17439;48.092;11.842;2024-01-10T05:48:30;96108.03;;;-2.69;64.60
30682;BME280;17439;48.092;11.842;2024-01-10T05:50:57;96101.72;;;-2.68;64.37
30682;BME280;17439;48.092;11.842;2024-01-10T05:53:24;96100.69;;;-2.67;64.38
30682;BME280;17439;48.092;11.842;2024-01-10T05:55:51;96109.88;;;-2.69;64.10
30682;BME280;17439;48.092;11.842;2024-01-10T05:58:18;96111.72;;;-2.70;64.26
30682;BME280;17439;48.092;11.842;2024-01-10T06:00:44;96103.97;;;-2.71;64.16
30682;BME280;17439;48.092;11.842;2024-01-10T06:03:11;96112.16;;;-2.73;64.37
30682;BME280;17439;48.092;11.842;2024-01-10T06:05:38;96116.66;;;-2.74;64.59
30682;BME280;17439;48.092;11.842;2024-01-10T06:08:05;96111.94;;;-2.71;64.66
30682;BME280;17439;48.092;11.842;2024-01-10T06:10:31;96114.59;;;-2.71;64.52
30682;BME280;17439;48.092;11.842;2024-01-10T06:13:02;96117.03;;;-2.70;64.45
30682;BME280;17439;48.092;11.842;2024-01-10T06:15:29;96114.38;;;-2.70;64.13
30682;BME280;17439;48.092;11.842;2024-01-10T06:17:56;96110.91;;;-2.70;63.85
30682;BME280;17439;48.092;11.842;2024-01-10T06:20:23;96121.75;;;-2.72;63.74
30682;BME280;17439;48.092;11.842;2024-01-10T06:22:49;96114.22;;;-2.75;63.73
30682;BME280;17439;48.092;11.842;2024-01-10T06:25:16;96111.97;;;-2.78;63.79
30682;BME280;17439;48.092;11.842;2024-01-10T06:27:43;96117.50;;;-2.80;63.96
30682;BME280;17439;48.092;11.842;2024-01-10T06:30:10;96115.06;;;-2.81;63.88
30682;BME280;17439;48.092;11.842;2024-01-10T06:32:37;96112.59;;;-2.83;63.95
30682;BME280;17439;48.092;11.842;2024-01-10T06:35:04;96110.97;;;-2.84;63.98
30682;BME280;17439;48.092;11.842;2024-01-10T06:37:31;96114.84;;;-2.86;64.15
30682;BME280;17439;48.092;11.842;2024-01-10T06:40:01;96118.31;;;-2.86;63.90
30682;BME280;17439;48.092;11.842;2024-01-10T06:42:28;96117.94;;;-2.89;64.03
30682;BME280;17439;48.092;11.842;2024-01-10T06:44:54;96119.75;;;-2.90;64.12
30682;BME280;17439;48.092;11.842;2024-01-10T06:47:21;96115.50;;;-2.91;64.25
30682;BME280;17439;48.092;11.842;2024-01-10T06:49:48;96113.66;;;-2.90;64.48
30682;BME280;17439;48.092;11.842;2024-01-10T06:52:15;96124.25;;;-2.90;64.43
30682;BME280;17439;48.092;11.842;2024-01-10T06:54:42;96125.28;;;-2.92;64.49
30682;BME280;17439;48.092;11.842;2024-01-10T06:57:08;96122.63;;;-2.92;64.29
30682;BME280;17439;48.092;11.842;2024-01-10T06:59:35;96129.97;;;-2.94;64.01
30682;BME280;17439;48.092;11.842;2024-01-10T07:02:02;96124.88;;;-2.95;64.23
30682;BME280;17439;48.092;11.842;2024-01-10T07:04:29;96127.53;;;-2.95;64.41
30682;BME280;17439;48.092;11.842;2024-01-10T07:06:56;96125.69;;;-2.95;64.31
30682;BME280;17439;48.092;11.842;2024-01-10T07:09:22;96128.34;;;-2.95;64.05
30682;BME280;17439;48.092;11.842;2024-01-10T07:11:49;96128.56;;;-2.96;64.11
30682;BME280;17439;48.092;11.842;2024-01-10T07:14:16;96137.56;;;-2.97;64.02
30682;BME280;17439;48.092;11.842;2024-01-10T07:16:43;96139.38;;;-2.98;64.23
30682;BME280;17439;48.092;11.842;2024-01-10T07:19:10;96138.56;;;-2.98;64.20
30682;BME280;17439;48.092;11.842;2024-01-10T07:21:36;96140.41;;;-2.99;64.41
30682;BME280;17439;48.092;11.842;2024-01-10T07:24:03;96149.97;;;-2.98;64.18
30682;BME280;17439;48.092;11.842;2024-01-10T07:26:30;96147.34;;;-2.98;64.40
30682;BME280;17439;48.092;11.842;2024-01-10T07:28:57;96143.66;;;-2.97;64.46
30682;BME280;17439;48.092;11.842;2024-01-10T07:31:24;96147.75;;;-2.94;64.59
30682;BME280;17439;48.092;11.842;2024-01-10T07:33:50;96149.38;;;-2.93;64.46
30682;BME280;17439;48.092;11.842;2024-01-10T07:36:17;96151.00;;;-2.92;64.54
30682;BME280;17439;48.092;11.842;2024-01-10T07:38:44;96154.06;;;-2.88;64.60
30682;BME280;17439;48.092;11.842;2024-01-10T07:41:11;96166.91;;;-2.85;64.30
30682;BME280;17439;48.092;11.842;2024-01-10T07:43:38;96164.63;;;-2.82;63.96
30682;BME280;17439;48.092;11.842;2024-01-10T07:46:04;96164.84;;;-2.83;63.97
30682;BME280;17439;48.092;11.842;2024-01-10T07:48:31;96164.03;;;-2.84;64.01
30682;BME280;17439;48.092;11.842;2024-01-10T07:50:58;96173.03;;;-2.85;64.43
30682;BME280;17439;48.092;11.842;2024-01-10T07:53:25;96179.34;;;-2.79;64.68
30682;BME280;17439;48.092;11.842;2024-01-10T07:55:52;96182.00;;;-2.79;64.75
30682;BME280;17439;48.092;11.842;2024-01-10T07:58:19;96177.50;;;-2.79;64.80
30682;BME280;17439;48.092;11.842;2024-01-10T08:00:46;96173.22;;;-2.73;65.06
30682;BME280;17439;48.092;11.842;2024-01-10T08:03:13;96182.56;;;-2.70;64.92
30682;BME280;17439;48.092;11.842;2024-01-10T08:05:39;96184.81;;;-2.67;65.07
30682;BME280;17439;48.092;11.842;2024-01-10T08:08:06;96194.00;;;-2.63;65.23
30682;BME280;17439;48.092;11.842;2024-01-10T08:10:33;96187.69;;;-2.62;64.74
30682;BME280;17439;48.092;11.842;2024-01-10T08:13:02;96189.72;;;-2.58;64.93
30682;BME280;17439;48.092;11.842;2024-01-10T08:15:29;96195.63;;;-2.56;65.12
30682;BME280;17439;48.092;11.842;2024-01-10T08:17:55;96188.25;;;-2.53;65.39
30682;BME280;17439;48.092;11.842;2024-01-10T08:20:22;96192.72;;;-2.47;65.62
30682;BME280;17439;48.092;11.842;2024-01-10T08:22:49;96190.03;;;-2.41;65.66
30682;BME280;17439;48.092;11.842;2024-01-10T08:25:16;96188.38;;;-2.35;65.48
30682;BME280;17439;48.092;11.842;2024-01-10T08:27:43;96186.50;;;-2.28;65.68
30682;BME280;17439;48.092;11.842;2024-01-10T08:30:11;96184.03;;;-2.23;65.53
30682;BME280;17439;48.092;11.842;2024-01-10T08:32:38;96187.47;;;-2.15;65.81
30682;BME280;17439;48.092;11.842;2024-01-10T08:35:06;96187.22;;;-2.07;65.26
30682;BME280;17439;48.092;11.842;2024-01-10T08:37:32;96189.44;;;-2.04;65.45
30682;BME280;17439;48.092;11.842;2024-01-10T08:39:59;96179.00;;;-1.99;65.53
30682;BME280;17439;48.092;11.842;2024-01-10T08:42:26;96184.50;;;-1.94;65.41
30682;BME280;17439;48.092;11.842;2024-01-10T08:44:53;96183.88;;;-1.89;65.34
30682;BME280;17439;48.092;11.842;2024-01-10T08:47:20;96189.34;;;-1.84;65.10
30682;BME280;17439;48.092;11.842;2024-01-10T08:49:47;96184.41;;;-1.80;65.15
30682;BME280;17439;48.092;11.842;2024-01-10T08:52:14;96184.56;;;-1.75;64.94
30682;BME280;17439;48.092;11.842;2024-01-10T08:54:40;96189.25;;;-1.71;64.64
30682;BME280;17439;48.092;11.842;2024-01-10T08:57:07;96192.75;;;-1.70;64.28
30682;BME280;17439;48.092;11.842;2024-01-10T08:59:34;96192.50;;;-1.69;64.65
30682;BME280;17439;48.092;11.842;2024-01-10T09:02:01;96195.78;;;-1.67;64.68
30682;BME280;17439;48.092;11.842;2024-01-10T09:04:28;96193.72;;;-1.65;64.58
30682;BME280;17439;48.092;11.842;2024-01-10T09:06:54;96192.69;;;-1.63;64.87
30682;BME280;17439;48.092;11.842;2024-01-10T09:09:21;96188.78;;;-1.61;64.94
30682;BME280;17439;48.092;11.842;2024-01-10T09:11:48;96192.03;;;-1.59;65.11
30682;BME280;17439;48.092;11.842;2024-01-10T09:14:15;96209.19;;;-1.55;65.26
30682;BME280;17439;48.092;11.842;2024-01-10T09:16:41;96205.06;;;-1.51;65.12
30682;BME280;17439;48.092;11.842;2024-01-10T09:19:09;96209.75;;;-1.46;64.64
30682;BME280;17439;48.092;11.842;2024-01-10T09:21:37;96209.31;;;-1.43;64.74
30682;BME280;17439;48.092;11.842;2024-01-10T09:24:04;96202.16;;;-1.42;64.41
30682;BME280;17439;48.092;11.842;2024-01-10T09:26:47;96212.78;;;-1.42;64.35
30682;BME280;17439;48.092;11.842;2024-01-10T09:29:13;96216.03;;;-1.40;64.39
30682;BME280;17439;48.092;11.842;2024-01-10T09:31:40;96215.22;;;-1.41;64.19
30682;BME280;17439;48.092;11.842;2024-01-10T09:34:07;96209.09;;;-1.41;64.41
30682;BME280;17439;48.092;11.842;2024-01-10T09:36:34;96211.16;;;-1.43;64.46
30682;BME280;17439;48.092;11.842;2024-01-10T09:39:01;96202.72;;;-1.40;64.80
30682;BME280;17439;48.092;11.842;2024-01-10T09:41:28;96208.06;;;-1.40;64.99
30682;BME280;17439;48.092;11.842;2024-01-10T09:43:57;96206.81;;;-1.38;65.24
30682;BME280;17439;48.092;11.842;2024-01-10T09:46:25;96202.09;;;-1.36;64.87
30682;BME280;17439;48.092;11.842;2024-01-10T09:48:52;96206.75;;;-1.31;64.97
30682;BME280;17439;48.092;11.842;2024-01-10T09:51:23;96209.78;;;-1.28;65.57
30682;BME280;17439;48.092;11.842;2024-01-10T09:53:51;96202.00;;;-1.22;65.41
30682;BME280;17439;48.092;11.842;2024-01-10T09:56:18;96199.28;;;-1.16;65.55
30682;BME280;17439;48.092;11.842;2024-01-10T09:58:48;96209.28;;;-1.11;64.80
30682;BME280;17439;48.092;11.842;2024-01-10T10:01:15;96211.88;;;-1.04;65.46
30682;BME280;17439;48.092;11.842;2024-01-10T10:03:45;96204.03;;;-0.99;65.13
30682;BME280;17439;48.092;11.842;2024-01-10T10:06:12;96200.94;;;-0.96;65.22
30682;BME280;17439;48.092;11.842;2024-01-10T10:08:42;96201.09;;;-0.91;65.33
30682;BME280;17439;48.092;11.842;2024-01-10T10:11:12;96202.88;;;-0.85;64.43
30682;BME280;17439;48.092;11.842;2024-01-10T10:13:39;96191.78;;;-0.82;65.57
30682;BME280;17439;48.092;11.842;2024-01-10T10:16:06;96195.88;;;-0.79;65.45
30682;BME280;17439;48.092;11.842;2024-01-10T10:18:33;96197.03;;;-0.75;65.41
30682;BME280;17439;48.092;11.842;2024-01-10T10:21:18;96197.22;;;-0.70;63.66
30682;BME280;17439;48.092;11.842;2024-01-10T10:23:59;96197.34;;;-0.65;63.83
30682;BME280;17439;48.092;11.842;2024-01-10T10:26:27;96192.75;;;-0.58;65.73
30682;BME280;17439;48.092;11.842;2024-01-10T10:28:54;96200.44;;;-0.49;65.91
30682;BME280;17439;48.092;11.842;2024-01-10T10:31:21;96197.50;;;-0.41;66.10
30682;BME280;17439;48.092;11.842;2024-01-10T10:33:49;96197.19;;;-0.33;66.05
30682;BME280;17439;48.092;11.842;2024-01-10T10:36:17;96196.88;;;-0.25;66.09
30682;BME280;17439;48.092;11.842;2024-01-10T10:38:44;96197.38;;;-0.16;65.83
30682;BME280;17439;48.092;11.842;2024-01-10T10:41:11;96190.56;;;-0.12;65.53
30682;BME280;17439;48.092;11.842;2024-01-10T10:43:41;96203.59;;;-0.04;65.81
30682;BME280;17439;48.092;11.842;2024-01-10T10:46:09;96199.22;;;0.02;65.85
30682;BME280;17439;48.092;11.842;2024-01-10T10:48:36;96192.75;;;0.10;66.04
30682;BME280;17439;48.092;11.842;2024-01-10T10:51:11;96202.06;;;0.19;65.66
30682;BME280;17439;48.092;11.842;2024-01-10T10:53:39;96195.81;;;0.25;65.95
30682;BME280;17439;48.092;11.842;2024-01-10T10:56:06;96196.31;;;0.34;66.27
30682;BME280;17439;48.092;11.842;2024-01-10T10:58:35;96202.13;;;0.43;65.60
30682;BME280;17439;48.092;11.842;2024-01-10T11:01:04;96190.53;;;0.49;65.50
30682;BME280;17439;48.092;11.842;2024-01-10T11:03:34;96196.00;;;0.54;64.77
30682;BME280;17439;48.092;11.842;2024-01-10T11:06:01;96198.22;;;0.57;64.74
30682;BME280;17439;48.092;11.842;2024-01-10T11:08:33;96189.41;;;0.57;63.97
30682;BME280;17439;48.092;11.842;2024-01-10T11:11:04;96189.19;;;0.58;64.50
30682;BME280;17439;48.092;11.842;2024-01-10T11:19:04;96182.34;;;0.62;62.89
30682;BME280;17439;48.092;11.842;2024-01-10T11:21:56;96179.69;;;0.62;61.60
30682;BME280;17439;48.092;11.842;2024-01-10T11:24:26;96195.69;;;0.62;64.47
30682;BME280;17439;48.092;11.842;2024-01-10T11:27:13;96183.63;;;0.60;61.66
30682;BME280;17439;48.092;11.842;2024-01-10T11:29:41;96197.19;;;0.58;64.72
30682;BME280;17439;48.092;11.842;2024-01-10T11:32:16;96191.63;;;0.60;63.76
30682;BME280;17439;48.092;11.842;2024-01-10T11:34:59;96197.19;;;0.58;63.13
30682;BME280;17439;48.092;11.842;2024-01-10T11:37:42;96189.75;;;0.60;63.39
30682;BME280;17439;48.092;11.842;2024-01-10T11:40:10;96181.53;;;0.62;65.39
30682;BME280;17439;48.092;11.842;2024-01-10T11:42:44;96185.59;;;0.64;63.73
30682;BME280;17439;48.092;11.842;2024-01-10T11:47:59;96199.06;;;0.69;63.99
30682;BME280;17439;48.092;11.842;2024-01-10T11:50:27;96201.28;;;0.72;64.90
30682;BME280;17439;48.092;11.842;2024-01-10T11:52:54;96199.19;;;0.75;65.56
30682;BME280;17439;48.092;11.842;2024-01-10T11:55:46;96203.25;;;0.77;64.23
30682;BME280;17439;48.092;11.842;2024-01-10T11:58:13;96194.09;;;0.85;64.59
30682;BME280;17439;48.092;11.842;2024-01-10T12:00:40;96192.56;;;0.89;63.10
30682;BME280;17439;48.092;11.842;2024-01-10T12:03:08;96189.91;;;0.89;62.05
30682;BME280;17439;48.092;11.842;2024-01-10T12:05:35;96188.66;;;0.80;62.74
30682;BME280;17439;48.092;11.842;2024-01-10T12:08:07;96186.66;;;0.75;62.21
30682;BME280;17439;48.092;11.842;2024-01-10T12:10:45;96185.13;;;0.67;62.71
30682;BME280;17439;48.092;11.842;2024-01-10T12:13:12;96198.38;;;0.62;62.98
30682;BME280;17439;48.092;11.842;2024-01-10T12:15:38;96194.75;;;0.57;63.30
30682;BME280;17439;48.092;11.842;2024-01-10T12:18:05;96188.22;;;0.52;64.04
30682;BME280;17439;48.092;11.842;2024-01-10T12:20:32;96189.06;;;0.53;64.47
30682;BME280;17439;48.092;11.842;2024-01-10T12:22:59;96179.41;;;0.52;64.59
30682;BME280;17439;48.092;11.842;2024-01-10T12:25:26;96188.00;;;0.54;64.71
30682;BME280;17439;48.092;11.842;2024-01-10T12:27:52;96186.41;;;0.53;64.89
30682;BME280;17439;48.092;11.842;2024-01-10T12:30:19;96185.34;;;0.54;65.19
30682;BME280;17439;48.092;11.842;2024-01-10T12:32:50;96177.09;;;0.56;64.32
30682;BME280;17439;48.092;11.842;2024-01-10T12:35:17;96175.59;;;0.60;65.71
30682;BME280;17439;48.092;11.842;2024-01-10T12:37:53;96174.56;;;0.61;63.54
30682;BME280;17439;48.092;11.842;2024-01-10T12:40:21;96171.44;;;0.64;65.53
30682;BME280;17439;48.092;11.842;2024-01-10T12:42:47;96168.56;;;0.65;65.43
30682;BME280;17439;48.092;11.842;2024-01-10T12:45:23;96174.47;;;0.67;63.46
30682;BME280;17439;48.092;11.842;2024-01-10T12:47:53;96171.34;;;0.70;65.06
30682;BME280;17439;48.092;11.842;2024-01-10T12:50:20;96163.44;;;0.76;65.48
30682;BME280;17439;48.092;11.842;2024-01-10T12:52:47;96166.69;;;0.78;65.72
30682;BME280;17439;48.092;11.842;2024-01-10T12:55:14;96166.22;;;0.81;65.83
30682;BME280;17439;48.092;11.842;2024-01-10T12:57:40;96167.41;;;0.85;65.79
30682;BME280;17439;48.092;11.842;2024-01-10T13:00:08;96165.66;;;0.90;65.55
30682;BME280;17439;48.092;11.842;2024-01-10T13:02:35;96162.75;;;0.92;65.44